Williams, AZ

6:31 AM MST on May 21, 2018 (GMT -0700)
Williams

Weather History for KCMR - November, 2012

Change the Weather History Date:

Wednesday, November 7, 2012

  Actual Average (K40G) Record (K40G)
Temperature  
Mean Temperature 50 °F -  
Max Temperature 68 °F 51 °F 69 °F (1996)
Min Temperature 33 °F 42 °F 42 °F (2000)
Degree Days  
Heating Degree Days 14    
Moisture  
Dew Point 19 °F    
Average Humidity 33    
Maximum Humidity 56    
Minimum Humidity 13    
Precipitation  
Precipitation 0.02 in - - ()
Sea Level Pressure  
Sea Level Pressure 30.30 in    
Wind  
Wind Speed 9 mph (South)    
Max Wind Speed 13 mph    
Max Gust Speed 18 mph    
Visibility 10 miles    
Events      
Averages and records for this station are not official NWS values.
T = Trace of Precipitation, MM = Missing Value Source: NWS Daily Summary

Daily Weather History Graph

Daily Weather History Graph

Search for Another Location

Airport or City:

Astronomy

Nov. 07, 2012 Rise Set
Actual Time 6:56 AM MST 5:27 PM MST
Civil Twilight 6:29 AM MST 5:54 PM MST
Nautical Twilight 5:59 AM MST 6:24 PM MST
Astronomical Twilight 5:29 AM MST 6:54 PM MST
Moon 12:08 AM MST (11/7) 1:25 PM MST (11/7)
Length of Visible Light 11h 24m
Length of Day
10h 31m
Last Quarter, 42% of the Moon is Illuminated
Nov 7
Last Quarter
Nov 13
New
Nov 20
First Quarter
Nov 28
Full
Dec 6
Last Quarter

Hourly Weather History & Observations

Time (MST) Temp. Windchill Dew Point Humidity Pressure Visibility Wind Dir Wind Speed Gust Speed Precip Events Conditions
12:15 AM 37.4 °F 30.3 °F 17.6 °F 45% 30.39 in 10.0 mi SSE 10.4 mph - N/A   Clear
12:35 AM 39.2 °F 32.0 °F 17.6 °F 42% 30.39 in 10.0 mi SSE 11.5 mph - N/A   Clear
12:55 AM 37.4 °F 29.8 °F 17.6 °F 45% 30.39 in 10.0 mi SSE 11.5 mph - N/A   Clear
1:15 AM 39.2 °F 33.0 °F 17.6 °F 42% 30.39 in 10.0 mi SSE 9.2 mph - N/A   Clear
1:35 AM 35.6 °F 29.2 °F 17.6 °F 48% 30.38 in 10.0 mi SSE 8.1 mph - N/A   Clear
1:55 AM 37.4 °F 30.3 °F 17.6 °F 45% 30.38 in 10.0 mi SSE 10.4 mph - N/A   Clear
2:15 AM 35.6 °F 28.0 °F 17.6 °F 48% 30.38 in 10.0 mi SSE 10.4 mph - N/A   Clear
2:35 AM 35.6 °F 28.0 °F 17.6 °F 48% 30.38 in 10.0 mi SSE 10.4 mph - N/A   Clear
2:55 AM 35.6 °F 28.6 °F 17.6 °F 48% 30.37 in 10.0 mi SSE 9.2 mph - N/A   Clear
3:15 AM 37.4 °F 30.8 °F 19.4 °F 48% 30.37 in 10.0 mi SSE 9.2 mph - N/A   Clear
3:35 AM 39.2 °F 32.5 °F 19.4 °F 45% 30.36 in 10.0 mi SSE 10.4 mph - N/A   Clear
3:55 AM 35.6 °F 28.0 °F 19.4 °F 52% 30.36 in 10.0 mi SSE 10.4 mph - N/A   Clear
4:15 AM 35.6 °F 27.5 °F 19.4 °F 52% 30.36 in 10.0 mi SSE 11.5 mph - N/A   Clear
4:35 AM 33.8 °F 25.8 °F 19.4 °F 56% 30.36 in 10.0 mi SSE 10.4 mph - N/A   Clear
5:15 AM 35.6 °F 28.0 °F 19.4 °F 52% 30.36 in 10.0 mi SSE 10.4 mph - N/A   Clear
5:35 AM 35.6 °F 28.0 °F 19.4 °F 52% 30.36 in 10.0 mi SSE 10.4 mph - N/A   Clear
6:15 AM 35.6 °F 28.0 °F 19.4 °F 52% 30.36 in 10.0 mi SSE 10.4 mph - N/A   Clear
6:55 AM 35.6 °F 28.0 °F 19.4 °F 52% 30.36 in 10.0 mi SSE 10.4 mph - N/A   Clear
7:15 AM 35.6 °F 28.0 °F 19.4 °F 52% 30.37 in 10.0 mi SSE 10.4 mph - N/A   Clear
7:35 AM 37.4 °F 30.8 °F 19.4 °F 48% 30.37 in 10.0 mi SSE 9.2 mph - N/A   Clear
7:55 AM 41.0 °F 35.2 °F 21.2 °F 45% 30.37 in 10.0 mi SSE 9.2 mph - N/A   Clear
8:15 AM 44.6 °F 40.2 °F 23.0 °F 43% 30.38 in 10.0 mi SSE 8.1 mph - N/A   Clear
8:55 AM 55.4 °F - 24.8 °F 31% 30.38 in 0.8 mi SSE 5.8 mph - N/A   Unknown
9:15 AM 59.0 °F - 24.8 °F 27% 30.37 in 10.0 mi SSE 4.6 mph - 0.02 in   Clear
9:55 AM 64.4 °F - 21.2 °F 19% 30.35 in 10.0 mi SSE 5.8 mph - N/A   Unknown
10:15 AM 64.4 °F - 19.4 °F 18% 30.35 in 10.0 mi SSW 8.1 mph - N/A   Clear
10:35 AM 66.2 °F - 17.6 °F 15% 30.35 in 10.0 mi SW 8.1 mph 16.1 mph N/A   Clear
10:55 AM 66.2 °F - 15.8 °F 14% 30.34 in 10.0 mi SSW 9.2 mph 16.1 mph N/A   Clear
11:15 AM 66.2 °F - 14.0 °F 13% 30.34 in 10.0 mi SW 6.9 mph - N/A   Clear
11:35 AM 66.2 °F - 14.0 °F 13% 30.33 in 10.0 mi WSW 9.2 mph - N/A   Clear
11:55 AM 66.2 °F - 14.0 °F 13% 30.32 in 10.0 mi SW 11.5 mph - N/A   Clear
12:15 PM 66.2 °F - 15.8 °F 14% 30.31 in 10.0 mi SSW 11.5 mph 17.3 mph N/A   Clear
12:35 PM 66.2 °F - 15.8 °F 14% 30.30 in 10.0 mi SW 12.7 mph 18.4 mph N/A   Clear
12:55 PM 66.2 °F - 15.8 °F 14% 30.29 in 10.0 mi SSW 12.7 mph 17.3 mph N/A   Clear
1:15 PM 66.2 °F - 14.0 °F 13% 30.28 in 10.0 mi SSW 11.5 mph 18.4 mph N/A   Clear
1:35 PM 66.2 °F - 17.6 °F 15% 30.27 in 10.0 mi SSW 9.2 mph 18.4 mph N/A   Clear
1:55 PM 68.0 °F - 17.6 °F 15% 30.27 in 10.0 mi SW 8.1 mph 18.4 mph N/A   Clear
2:15 PM 66.2 °F - 17.6 °F 15% 30.26 in 10.0 mi South 12.7 mph - N/A   Clear
2:35 PM 66.2 °F - 17.6 °F 15% 30.26 in 10.0 mi SSW 10.4 mph - N/A   Clear
2:55 PM 66.2 °F - 17.6 °F 15% 30.25 in 10.0 mi WSW 11.5 mph 16.1 mph N/A   Clear
3:15 PM 66.2 °F - 17.6 °F 15% 30.25 in 10.0 mi South 12.7 mph 18.4 mph N/A   Clear
3:35 PM - - - N/A% 30.24 in 10.0 mi SW 8.1 mph 18.4 mph N/A   Unknown
3:55 PM 66.2 °F - 17.6 °F 15% 30.24 in 10.0 mi SSW 9.2 mph 16.1 mph N/A   Clear
4:15 PM 64.4 °F - 17.6 °F 16% 30.24 in 10.0 mi SW 10.4 mph - N/A   Clear
4:35 PM 64.4 °F - 17.6 °F 16% 30.23 in 10.0 mi SSW 6.9 mph - N/A   Clear
4:55 PM 64.4 °F - 19.4 °F 18% 30.23 in 10.0 mi SSW 10.4 mph - N/A   Clear
5:15 PM 62.6 °F - 19.4 °F 19% 30.23 in 10.0 mi SW 5.8 mph - N/A   Clear
5:35 PM 59.0 °F - 19.4 °F 22% 30.23 in 10.0 mi SW 5.8 mph - N/A   Clear
5:55 PM 57.2 °F - 19.4 °F 23% 30.24 in 10.0 mi SSW 6.9 mph - N/A   Clear
6:15 PM 57.2 °F - 21.2 °F 25% 30.24 in 10.0 mi SSW 6.9 mph - N/A   Clear
6:35 PM 53.6 °F - 21.2 °F 28% 30.24 in 10.0 mi SSW 6.9 mph - N/A   Clear
6:55 PM 50.0 °F - 19.4 °F 30% 30.24 in 10.0 mi South 3.5 mph - N/A   Clear
7:15 PM 50.0 °F - 19.4 °F 30% 30.25 in 10.0 mi South 5.8 mph - N/A   Clear
7:35 PM 44.6 °F 41.4 °F 19.4 °F 37% 30.25 in 10.0 mi SSE 5.8 mph - N/A   Clear
7:55 PM 44.6 °F 40.7 °F 19.4 °F 37% 30.24 in 10.0 mi South 6.9 mph - N/A   Clear
8:15 PM 46.4 °F 42.9 °F 19.4 °F 34% 30.25 in 10.0 mi South 6.9 mph - N/A   Clear
8:35 PM 44.6 °F 40.7 °F 19.4 °F 37% 30.24 in 10.0 mi SSE 6.9 mph - N/A   Clear
8:55 PM 41.0 °F 37.1 °F 19.4 °F 42% 30.24 in 10.0 mi SSE 5.8 mph - N/A   Clear
9:15 PM 41.0 °F 36.4 °F 19.4 °F 42% 30.24 in 10.0 mi SE 6.9 mph - N/A   Clear
9:35 PM 41.0 °F 35.8 °F 19.4 °F 42% 30.24 in 10.0 mi SSE 8.1 mph - N/A   Clear
9:55 PM 42.8 °F 38.0 °F 19.4 °F 39% 30.24 in 10.0 mi SSE 8.1 mph - N/A   Clear
10:15 PM 39.2 °F 33.6 °F 19.4 °F 45% 30.23 in 10.0 mi SSE 8.1 mph - N/A   Clear
10:35 PM 37.4 °F 31.4 °F 19.4 °F 48% 30.23 in 10.0 mi SSE 8.1 mph - N/A   Clear
10:55 PM 37.4 °F 31.4 °F 19.4 °F 48% 30.22 in 10.0 mi SSE 8.1 mph - N/A   Clear
11:15 PM 37.4 °F 30.8 °F 19.4 °F 48% 30.22 in 10.0 mi SSE 9.2 mph - N/A   Clear
11:35 PM 39.2 °F 33.6 °F 19.4 °F 45% 30.22 in 10.0 mi SSE 8.1 mph - N/A   Clear
11:55 PM 37.4 °F 30.3 °F 19.4 °F 48% 30.21 in 10.0 mi SSE 10.4 mph - N/A   Clear